sensor_id;sensor_type;location;lat;lon;timestamp;P1;durP1;ratioP1;P2;durP2;ratioP2
68987;SDS011;56038;46.080;11.116;2023-01-15T00:03:00;20.02;;;12.40;;
68987;SDS011;56038;46.080;11.116;2023-01-15T00:08:08;19.77;;;11.80;;
68987;SDS011;56038;46.080;11.116;2023-01-15T00:13:19;17.98;;;11.43;;
68987;SDS011;56038;46.080;11.116;2023-01-15T00:18:30;16.38;;;12.32;;
68987;SDS011;56038;46.080;11.116;2023-01-15T00:23:44;18.17;;;12.43;;
68987;SDS011;56038;46.080;11.116;2023-01-15T00:29:09;21.77;;;12.43;;
68987;SDS011;56038;46.080;11.116;2023-01-15T00:34:19;18.27;;;11.77;;
68987;SDS011;56038;46.080;11.116;2023-01-15T00:39:32;17.17;;;12.20;;
68987;SDS011;56038;46.080;11.116;2023-01-15T00:44:42;16.33;;;11.50;;
68987;SDS011;56038;46.080;11.116;2023-01-15T00:49:47;18.10;;;12.65;;
68987;SDS011;56038;46.080;11.116;2023-01-15T00:54:50;15.65;;;11.68;;
68987;SDS011;56038;46.080;11.116;2023-01-15T00:59:53;15.23;;;11.38;;
68987;SDS011;56038;46.080;11.116;2023-01-15T01:04:54;17.17;;;11.35;;
68987;SDS011;56038;46.080;11.116;2023-01-15T01:09:58;17.60;;;11.20;;
68987;SDS011;56038;46.080;11.116;2023-01-15T01:14:59;20.77;;;11.90;;
68987;SDS011;56038;46.080;11.116;2023-01-15T01:20:02;16.42;;;11.63;;
68987;SDS011;56038;46.080;11.116;2023-01-15T01:25:06;17.85;;;12.07;;
68987;SDS011;56038;46.080;11.116;2023-01-15T01:30:10;20.08;;;12.90;;
68987;SDS011;56038;46.080;11.116;2023-01-15T01:35:13;19.08;;;12.02;;
68987;SDS011;56038;46.080;11.116;2023-01-15T01:40:17;17.95;;;11.38;;
68987;SDS011;56038;46.080;11.116;2023-01-15T01:45:21;17.35;;;11.27;;
68987;SDS011;56038;46.080;11.116;2023-01-15T01:50:25;18.33;;;11.25;;
68987;SDS011;56038;46.080;11.116;2023-01-15T01:55:31;16.67;;;11.48;;
68987;SDS011;56038;46.080;11.116;2023-01-15T02:00:34;14.48;;;10.52;;
68987;SDS011;56038;46.080;11.116;2023-01-15T02:05:41;22.67;;;11.80;;
68987;SDS011;56038;46.080;11.116;2023-01-15T02:10:51;15.18;;;11.15;;
68987;SDS011;56038;46.080;11.116;2023-01-15T02:15:55;15.80;;;11.70;;
68987;SDS011;56038;46.080;11.116;2023-01-15T02:21:05;18.10;;;11.63;;
68987;SDS011;56038;46.080;11.116;2023-01-15T02:26:23;18.60;;;11.15;;
68987;SDS011;56038;46.080;11.116;2023-01-15T02:31:39;16.63;;;10.55;;
68987;SDS011;56038;46.080;11.116;2023-01-15T02:36:45;16.53;;;11.33;;
68987;SDS011;56038;46.080;11.116;2023-01-15T02:41:55;16.88;;;10.20;;
68987;SDS011;56038;46.080;11.116;2023-01-15T02:47:00;18.20;;;11.02;;
68987;SDS011;56038;46.080;11.116;2023-01-15T02:52:05;15.18;;;10.55;;
68987;SDS011;56038;46.080;11.116;2023-01-15T03:02:14;15.55;;;10.10;;
68987;SDS011;56038;46.080;11.116;2023-01-15T03:07:21;15.32;;;10.60;;
68987;SDS011;56038;46.080;11.116;2023-01-15T03:12:29;15.23;;;10.23;;
68987;SDS011;56038;46.080;11.116;2023-01-15T03:18:00;13.88;;;10.48;;
68987;SDS011;56038;46.080;11.116;2023-01-15T03:23:06;14.43;;;9.80;;
68987;SDS011;56038;46.080;11.116;2023-01-15T03:28:13;17.48;;;10.20;;
68987;SDS011;56038;46.080;11.116;2023-01-15T03:33:18;13.45;;;8.88;;
68987;SDS011;56038;46.080;11.116;2023-01-15T03:38:20;14.48;;;9.85;;
68987;SDS011;56038;46.080;11.116;2023-01-15T03:43:27;15.05;;;9.85;;
68987;SDS011;56038;46.080;11.116;2023-01-15T03:53:47;16.75;;;9.70;;
68987;SDS011;56038;46.080;11.116;2023-01-15T03:58:54;11.75;;;9.35;;
68987;SDS011;56038;46.080;11.116;2023-01-15T04:04:00;16.00;;;9.05;;
68987;SDS011;56038;46.080;11.116;2023-01-15T04:09:02;19.00;;;9.52;;
68987;SDS011;56038;46.080;11.116;2023-01-15T04:14:09;12.75;;;8.50;;
68987;SDS011;56038;46.080;11.116;2023-01-15T04:19:13;10.07;;;8.48;;
68987;SDS011;56038;46.080;11.116;2023-01-15T04:24:15;11.27;;;8.07;;
68987;SDS011;56038;46.080;11.116;2023-01-15T04:29:21;10.63;;;8.40;;
68987;SDS011;56038;46.080;11.116;2023-01-15T04:34:23;12.00;;;8.90;;
68987;SDS011;56038;46.080;11.116;2023-01-15T04:39:25;10.45;;;8.38;;
68987;SDS011;56038;46.080;11.116;2023-01-15T04:44:29;13.93;;;9.23;;
68987;SDS011;56038;46.080;11.116;2023-01-15T04:49:31;12.05;;;8.85;;
68987;SDS011;56038;46.080;11.116;2023-01-15T04:54:34;12.48;;;8.52;;
68987;SDS011;56038;46.080;11.116;2023-01-15T04:59:37;14.90;;;9.30;;
68987;SDS011;56038;46.080;11.116;2023-01-15T05:04:38;12.90;;;8.77;;
68987;SDS011;56038;46.080;11.116;2023-01-15T05:09:40;12.63;;;9.25;;
68987;SDS011;56038;46.080;11.116;2023-01-15T05:14:43;11.25;;;8.00;;
68987;SDS011;56038;46.080;11.116;2023-01-15T05:19:45;14.80;;;8.50;;
68987;SDS011;56038;46.080;11.116;2023-01-15T05:24:47;13.18;;;9.63;;
68987;SDS011;56038;46.080;11.116;2023-01-15T05:29:50;12.35;;;8.38;;
68987;SDS011;56038;46.080;11.116;2023-01-15T05:34:52;11.88;;;8.85;;
68987;SDS011;56038;46.080;11.116;2023-01-15T05:39:53;11.05;;;7.72;;
68987;SDS011;56038;46.080;11.116;2023-01-15T05:44:57;11.23;;;8.73;;
68987;SDS011;56038;46.080;11.116;2023-01-15T05:49:58;9.90;;;7.70;;
68987;SDS011;56038;46.080;11.116;2023-01-15T05:55:00;13.05;;;8.88;;
68987;SDS011;56038;46.080;11.116;2023-01-15T06:00:04;9.90;;;8.45;;
68987;SDS011;56038;46.080;11.116;2023-01-15T06:05:07;12.55;;;8.77;;
68987;SDS011;56038;46.080;11.116;2023-01-15T06:10:09;11.40;;;8.23;;
68987;SDS011;56038;46.080;11.116;2023-01-15T06:15:12;11.20;;;8.43;;
68987;SDS011;56038;46.080;11.116;2023-01-15T06:20:14;11.80;;;8.25;;
68987;SDS011;56038;46.080;11.116;2023-01-15T06:25:16;10.85;;;8.52;;
68987;SDS011;56038;46.080;11.116;2023-01-15T06:30:19;15.57;;;8.68;;
68987;SDS011;56038;46.080;11.116;2023-01-15T06:35:21;12.27;;;8.35;;
68987;SDS011;56038;46.080;11.116;2023-01-15T06:40:23;10.55;;;8.23;;
68987;SDS011;56038;46.080;11.116;2023-01-15T06:45:27;12.93;;;8.18;;
68987;SDS011;56038;46.080;11.116;2023-01-15T06:50:55;12.32;;;8.40;;
68987;SDS011;56038;46.080;11.116;2023-01-15T06:55:57;15.07;;;8.38;;
68987;SDS011;56038;46.080;11.116;2023-01-15T07:01:00;16.58;;;8.23;;
68987;SDS011;56038;46.080;11.116;2023-01-15T07:06:07;12.25;;;7.57;;
68987;SDS011;56038;46.080;11.116;2023-01-15T07:11:10;13.30;;;7.78;;
68987;SDS011;56038;46.080;11.116;2023-01-15T07:16:13;12.05;;;7.93;;
68987;SDS011;56038;46.080;11.116;2023-01-15T07:21:27;11.23;;;8.10;;
68987;SDS011;56038;46.080;11.116;2023-01-15T07:26:29;12.90;;;7.85;;
68987;SDS011;56038;46.080;11.116;2023-01-15T07:31:33;9.20;;;7.45;;
68987;SDS011;56038;46.080;11.116;2023-01-15T07:36:35;11.10;;;8.00;;
68987;SDS011;56038;46.080;11.116;2023-01-15T07:41:37;9.82;;;8.00;;
68987;SDS011;56038;46.080;11.116;2023-01-15T07:46:57;11.80;;;7.70;;
68987;SDS011;56038;46.080;11.116;2023-01-15T07:52:17;10.98;;;8.15;;
68987;SDS011;56038;46.080;11.116;2023-01-15T07:57:20;20.38;;;11.80;;
68987;SDS011;56038;46.080;11.116;2023-01-15T08:02:24;13.98;;;9.48;;
68987;SDS011;56038;46.080;11.116;2023-01-15T08:07:26;14.93;;;9.18;;
68987;SDS011;56038;46.080;11.116;2023-01-15T08:12:28;10.82;;;8.25;;
68987;SDS011;56038;46.080;11.116;2023-01-15T08:17:49;11.25;;;7.97;;
68987;SDS011;56038;46.080;11.116;2023-01-15T08:22:51;11.20;;;7.28;;
68987;SDS011;56038;46.080;11.116;2023-01-15T08:27:54;9.13;;;7.28;;
68987;SDS011;56038;46.080;11.116;2023-01-15T08:32:59;10.27;;;7.78;;
68987;SDS011;56038;46.080;11.116;2023-01-15T08:38:03;9.80;;;7.43;;
68987;SDS011;56038;46.080;11.116;2023-01-15T08:43:05;10.52;;;8.05;;
68987;SDS011;56038;46.080;11.116;2023-01-15T08:48:08;12.45;;;7.20;;
68987;SDS011;56038;46.080;11.116;2023-01-15T08:53:10;16.00;;;9.00;;
68987;SDS011;56038;46.080;11.116;2023-01-15T08:58:12;11.82;;;7.90;;
68987;SDS011;56038;46.080;11.116;2023-01-15T09:03:15;10.38;;;7.85;;
68987;SDS011;56038;46.080;11.116;2023-01-15T09:08:18;10.05;;;7.75;;
68987;SDS011;56038;46.080;11.116;2023-01-15T09:13:20;9.27;;;7.40;;
68987;SDS011;56038;46.080;11.116;2023-01-15T09:18:23;10.23;;;7.53;;
68987;SDS011;56038;46.080;11.116;2023-01-15T09:23:24;12.18;;;7.38;;
68987;SDS011;56038;46.080;11.116;2023-01-15T09:28:26;13.25;;;8.23;;
68987;SDS011;56038;46.080;11.116;2023-01-15T09:33:30;10.02;;;7.90;;
68987;SDS011;56038;46.080;11.116;2023-01-15T09:38:32;13.05;;;7.57;;
68987;SDS011;56038;46.080;11.116;2023-01-15T09:43:37;8.50;;;7.40;;
68987;SDS011;56038;46.080;11.116;2023-01-15T09:48:50;12.68;;;7.93;;
68987;SDS011;56038;46.080;11.116;2023-01-15T09:54:14;14.82;;;8.80;;
68987;SDS011;56038;46.080;11.116;2023-01-15T09:59:27;11.27;;;8.35;;
68987;SDS011;56038;46.080;11.116;2023-01-15T10:04:35;13.00;;;8.30;;
68987;SDS011;56038;46.080;11.116;2023-01-15T10:09:40;13.00;;;8.52;;
68987;SDS011;56038;46.080;11.116;2023-01-15T10:14:44;11.25;;;8.32;;
68987;SDS011;56038;46.080;11.116;2023-01-15T10:19:52;9.70;;;8.57;;
68987;SDS011;56038;46.080;11.116;2023-01-15T10:24:56;10.18;;;7.70;;
68987;SDS011;56038;46.080;11.116;2023-01-15T10:30:00;11.05;;;7.93;;
68987;SDS011;56038;46.080;11.116;2023-01-15T10:35:14;10.90;;;8.60;;
68987;SDS011;56038;46.080;11.116;2023-01-15T10:40:36;10.40;;;8.02;;
68987;SDS011;56038;46.080;11.116;2023-01-15T10:45:46;9.40;;;7.65;;
68987;SDS011;56038;46.080;11.116;2023-01-15T10:50:51;12.23;;;8.82;;
68987;SDS011;56038;46.080;11.116;2023-01-15T10:55:56;11.35;;;7.32;;
68987;SDS011;56038;46.080;11.116;2023-01-15T11:01:04;11.18;;;6.93;;
68987;SDS011;56038;46.080;11.116;2023-01-15T11:06:12;8.65;;;6.65;;
68987;SDS011;56038;46.080;11.116;2023-01-15T11:11:17;10.85;;;7.03;;
68987;SDS011;56038;46.080;11.116;2023-01-15T11:16:43;9.93;;;6.80;;
68987;SDS011;56038;46.080;11.116;2023-01-15T11:22:06;9.05;;;6.95;;
68987;SDS011;56038;46.080;11.116;2023-01-15T11:27:12;8.13;;;6.75;;
68987;SDS011;56038;46.080;11.116;2023-01-15T11:32:22;12.20;;;8.90;;
68987;SDS011;56038;46.080;11.116;2023-01-15T11:37:29;9.82;;;8.32;;
68987;SDS011;56038;46.080;11.116;2023-01-15T11:42:32;9.80;;;7.75;;
68987;SDS011;56038;46.080;11.116;2023-01-15T11:47:52;8.18;;;6.18;;
68987;SDS011;56038;46.080;11.116;2023-01-15T11:53:14;9.30;;;6.30;;
68987;SDS011;56038;46.080;11.116;2023-01-15T11:58:19;8.38;;;5.90;;
68987;SDS011;56038;46.080;11.116;2023-01-15T12:03:24;10.38;;;7.00;;
68987;SDS011;56038;46.080;11.116;2023-01-15T12:08:33;8.43;;;6.15;;
68987;SDS011;56038;46.080;11.116;2023-01-15T12:13:51;9.88;;;6.28;;
68987;SDS011;56038;46.080;11.116;2023-01-15T12:19:00;10.82;;;6.90;;
68987;SDS011;56038;46.080;11.116;2023-01-15T12:29:39;7.05;;;6.00;;
68987;SDS011;56038;46.080;11.116;2023-01-15T12:34:47;8.30;;;6.28;;
68987;SDS011;56038;46.080;11.116;2023-01-15T12:39:55;6.25;;;5.40;;
68987;SDS011;56038;46.080;11.116;2023-01-15T12:45:00;8.32;;;6.35;;
68987;SDS011;56038;46.080;11.116;2023-01-15T12:50:12;7.57;;;6.30;;
68987;SDS011;56038;46.080;11.116;2023-01-15T12:55:27;8.20;;;5.75;;
68987;SDS011;56038;46.080;11.116;2023-01-15T13:05:37;8.82;;;6.50;;
68987;SDS011;56038;46.080;11.116;2023-01-15T13:10:49;8.35;;;6.63;;
68987;SDS011;56038;46.080;11.116;2023-01-15T13:15:55;8.70;;;6.00;;
68987;SDS011;56038;46.080;11.116;2023-01-15T13:21:04;8.02;;;5.90;;
68987;SDS011;56038;46.080;11.116;2023-01-15T13:26:27;7.68;;;6.88;;
68987;SDS011;56038;46.080;11.116;2023-01-15T13:31:49;8.68;;;6.40;;
68987;SDS011;56038;46.080;11.116;2023-01-15T13:36:58;7.60;;;6.63;;
68987;SDS011;56038;46.080;11.116;2023-01-15T13:42:10;9.63;;;7.55;;
68987;SDS011;56038;46.080;11.116;2023-01-15T13:47:34;9.43;;;6.82;;
68987;SDS011;56038;46.080;11.116;2023-01-15T13:52:37;9.13;;;7.88;;
68987;SDS011;56038;46.080;11.116;2023-01-15T13:57:41;10.80;;;8.02;;
68987;SDS011;56038;46.080;11.116;2023-01-15T14:02:50;9.93;;;7.45;;
68987;SDS011;56038;46.080;11.116;2023-01-15T14:07:53;11.10;;;8.40;;
68987;SDS011;56038;46.080;11.116;2023-01-15T14:13:00;9.15;;;7.60;;
68987;SDS011;56038;46.080;11.116;2023-01-15T14:18:23;7.72;;;6.72;;
68987;SDS011;56038;46.080;11.116;2023-01-15T14:23:47;9.25;;;6.82;;
68987;SDS011;56038;46.080;11.116;2023-01-15T14:29:03;10.40;;;7.73;;
68987;SDS011;56038;46.080;11.116;2023-01-15T14:34:26;8.55;;;7.07;;
68987;SDS011;56038;46.080;11.116;2023-01-15T14:39:32;8.33;;;6.33;;
68987;SDS011;56038;46.080;11.116;2023-01-15T14:44:42;9.38;;;6.80;;
68987;SDS011;56038;46.080;11.116;2023-01-15T14:49:45;8.70;;;6.88;;
68987;SDS011;56038;46.080;11.116;2023-01-15T14:54:49;7.18;;;6.05;;
68987;SDS011;56038;46.080;11.116;2023-01-15T14:59:55;9.30;;;7.38;;
68987;SDS011;56038;46.080;11.116;2023-01-15T15:05:03;10.02;;;7.25;;
68987;SDS011;56038;46.080;11.116;2023-01-15T15:10:11;12.23;;;7.23;;
68987;SDS011;56038;46.080;11.116;2023-01-15T15:15:22;13.52;;;7.35;;
68987;SDS011;56038;46.080;11.116;2023-01-15T15:20:41;18.35;;;11.02;;
68987;SDS011;56038;46.080;11.116;2023-01-15T15:25:50;9.35;;;7.53;;
68987;SDS011;56038;46.080;11.116;2023-01-15T15:30:57;8.85;;;6.97;;
68987;SDS011;56038;46.080;11.116;2023-01-15T15:36:01;11.60;;;7.10;;
68987;SDS011;56038;46.080;11.116;2023-01-15T15:41:04;8.13;;;6.70;;
68987;SDS011;56038;46.080;11.116;2023-01-15T15:46:25;8.88;;;7.05;;
68987;SDS011;56038;46.080;11.116;2023-01-15T15:51:47;11.18;;;6.45;;
68987;SDS011;56038;46.080;11.116;2023-01-15T15:56:52;9.05;;;7.32;;
68987;SDS011;56038;46.080;11.116;2023-01-15T16:01:59;11.90;;;7.97;;
68987;SDS011;56038;46.080;11.116;2023-01-15T16:07:18;11.13;;;7.18;;
68987;SDS011;56038;46.080;11.116;2023-01-15T16:12:24;10.32;;;7.82;;
68987;SDS011;56038;46.080;11.116;2023-01-15T16:17:30;9.43;;;7.32;;
68987;SDS011;56038;46.080;11.116;2023-01-15T16:22:33;9.40;;;7.82;;
68987;SDS011;56038;46.080;11.116;2023-01-15T16:27:36;12.73;;;8.95;;
68987;SDS011;56038;46.080;11.116;2023-01-15T16:32:39;11.88;;;8.95;;
68987;SDS011;56038;46.080;11.116;2023-01-15T16:37:45;14.97;;;9.23;;
68987;SDS011;56038;46.080;11.116;2023-01-15T16:48:01;15.80;;;10.02;;
68987;SDS011;56038;46.080;11.116;2023-01-15T16:53:30;14.15;;;9.07;;
68987;SDS011;56038;46.080;11.116;2023-01-15T16:58:38;13.60;;;8.50;;
68987;SDS011;56038;46.080;11.116;2023-01-15T17:03:42;11.30;;;8.02;;
68987;SDS011;56038;46.080;11.116;2023-01-15T17:08:45;11.63;;;8.77;;
68987;SDS011;56038;46.080;11.116;2023-01-15T17:13:49;12.68;;;9.05;;
68987;SDS011;56038;46.080;11.116;2023-01-15T17:18:53;13.70;;;9.88;;
68987;SDS011;56038;46.080;11.116;2023-01-15T17:23:54;21.73;;;13.52;;
68987;SDS011;56038;46.080;11.116;2023-01-15T17:28:58;18.05;;;12.40;;
68987;SDS011;56038;46.080;11.116;2023-01-15T17:34:02;18.55;;;12.90;;
68987;SDS011;56038;46.080;11.116;2023-01-15T17:39:04;16.65;;;12.82;;
68987;SDS011;56038;46.080;11.116;2023-01-15T17:44:06;20.65;;;12.48;;
68987;SDS011;56038;46.080;11.116;2023-01-15T17:49:10;15.10;;;10.88;;
68987;SDS011;56038;46.080;11.116;2023-01-15T17:54:12;16.30;;;11.55;;
68987;SDS011;56038;46.080;11.116;2023-01-15T17:59:34;15.20;;;10.80;;
68987;SDS011;56038;46.080;11.116;2023-01-15T18:04:55;12.90;;;10.10;;
68987;SDS011;56038;46.080;11.116;2023-01-15T18:10:28;15.13;;;10.38;;
68987;SDS011;56038;46.080;11.116;2023-01-15T18:15:31;16.55;;;11.07;;
68987;SDS011;56038;46.080;11.116;2023-01-15T18:20:34;14.80;;;10.93;;
68987;SDS011;56038;46.080;11.116;2023-01-15T18:25:36;15.15;;;11.07;;
68987;SDS011;56038;46.080;11.116;2023-01-15T18:30:45;15.10;;;9.52;;
68987;SDS011;56038;46.080;11.116;2023-01-15T18:35:48;11.85;;;8.35;;
68987;SDS011;56038;46.080;11.116;2023-01-15T18:40:50;11.18;;;9.27;;
68987;SDS011;56038;46.080;11.116;2023-01-15T18:45:52;9.68;;;8.27;;
68987;SDS011;56038;46.080;11.116;2023-01-15T18:51:12;12.10;;;8.48;;
68987;SDS011;56038;46.080;11.116;2023-01-15T18:56:14;8.77;;;7.03;;
68987;SDS011;56038;46.080;11.116;2023-01-15T19:01:36;9.57;;;6.65;;
68987;SDS011;56038;46.080;11.116;2023-01-15T19:06:39;10.75;;;7.60;;
68987;SDS011;56038;46.080;11.116;2023-01-15T19:11:42;9.05;;;7.03;;
68987;SDS011;56038;46.080;11.116;2023-01-15T19:16:44;10.00;;;7.05;;
68987;SDS011;56038;46.080;11.116;2023-01-15T19:22:05;11.18;;;7.80;;
68987;SDS011;56038;46.080;11.116;2023-01-15T19:27:24;10.25;;;7.05;;
68987;SDS011;56038;46.080;11.116;2023-01-15T19:32:26;10.50;;;6.90;;
68987;SDS011;56038;46.080;11.116;2023-01-15T19:37:29;10.95;;;7.30;;
68987;SDS011;56038;46.080;11.116;2023-01-15T19:42:31;10.98;;;7.80;;
68987;SDS011;56038;46.080;11.116;2023-01-15T19:47:50;7.38;;;6.45;;
68987;SDS011;56038;46.080;11.116;2023-01-15T19:53:11;9.13;;;7.55;;
68987;SDS011;56038;46.080;11.116;2023-01-15T19:58:14;9.95;;;7.03;;
68987;SDS011;56038;46.080;11.116;2023-01-15T20:03:16;10.05;;;6.90;;
68987;SDS011;56038;46.080;11.116;2023-01-15T20:08:20;18.42;;;10.60;;
68987;SDS011;56038;46.080;11.116;2023-01-15T20:13:22;8.95;;;7.22;;
68987;SDS011;56038;46.080;11.116;2023-01-15T20:18:41;8.05;;;6.53;;
68987;SDS011;56038;46.080;11.116;2023-01-15T20:23:49;7.53;;;6.55;;
68987;SDS011;56038;46.080;11.116;2023-01-15T20:28:51;7.53;;;6.83;;
68987;SDS011;56038;46.080;11.116;2023-01-15T20:33:53;9.48;;;7.30;;
68987;SDS011;56038;46.080;11.116;2023-01-15T20:38:59;8.75;;;6.70;;
68987;SDS011;56038;46.080;11.116;2023-01-15T20:44:01;11.32;;;6.80;;
68987;SDS011;56038;46.080;11.116;2023-01-15T20:49:20;7.75;;;6.38;;
68987;SDS011;56038;46.080;11.116;2023-01-15T20:54:28;7.72;;;6.82;;
68987;SDS011;56038;46.080;11.116;2023-01-15T20:59:30;8.60;;;7.57;;
68987;SDS011;56038;46.080;11.116;2023-01-15T21:04:32;10.32;;;7.82;;
68987;SDS011;56038;46.080;11.116;2023-01-15T21:09:35;8.85;;;7.65;;
68987;SDS011;56038;46.080;11.116;2023-01-15T21:14:37;11.13;;;7.55;;
68987;SDS011;56038;46.080;11.116;2023-01-15T21:19:38;8.07;;;6.65;;
68987;SDS011;56038;46.080;11.116;2023-01-15T21:24:42;8.43;;;6.50;;
68987;SDS011;56038;46.080;11.116;2023-01-15T21:29:45;9.57;;;7.95;;
68987;SDS011;56038;46.080;11.116;2023-01-15T21:34:47;9.20;;;7.25;;
68987;SDS011;56038;46.080;11.116;2023-01-15T21:39:51;8.63;;;7.03;;
68987;SDS011;56038;46.080;11.116;2023-01-15T21:44:52;8.55;;;7.35;;
68987;SDS011;56038;46.080;11.116;2023-01-15T21:49:54;10.10;;;7.63;;
68987;SDS011;56038;46.080;11.116;2023-01-15T21:54:58;11.43;;;7.60;;
68987;SDS011;56038;46.080;11.116;2023-01-15T22:00:03;7.90;;;7.10;;
68987;SDS011;56038;46.080;11.116;2023-01-15T22:10:10;10.13;;;7.60;;
68987;SDS011;56038;46.080;11.116;2023-01-15T22:15:12;11.95;;;7.97;;
68987;SDS011;56038;46.080;11.116;2023-01-15T22:20:15;9.82;;;8.07;;
68987;SDS011;56038;46.080;11.116;2023-01-15T22:25:18;12.00;;;8.27;;
68987;SDS011;56038;46.080;11.116;2023-01-15T22:30:20;8.48;;;7.47;;
68987;SDS011;56038;46.080;11.116;2023-01-15T22:35:21;10.40;;;7.88;;
68987;SDS011;56038;46.080;11.116;2023-01-15T22:40:27;9.70;;;7.85;;
68987;SDS011;56038;46.080;11.116;2023-01-15T22:45:29;9.82;;;7.70;;
68987;SDS011;56038;46.080;11.116;2023-01-15T22:50:30;9.30;;;7.70;;
68987;SDS011;56038;46.080;11.116;2023-01-15T22:55:34;11.63;;;8.88;;
68987;SDS011;56038;46.080;11.116;2023-01-15T23:00:35;9.77;;;8.43;;
68987;SDS011;56038;46.080;11.116;2023-01-15T23:05:37;9.82;;;8.07;;
68987;SDS011;56038;46.080;11.116;2023-01-15T23:10:41;9.73;;;8.30;;
68987;SDS011;56038;46.080;11.116;2023-01-15T23:15:45;12.02;;;9.15;;
68987;SDS011;56038;46.080;11.116;2023-01-15T23:20:56;10.82;;;8.98;;
68987;SDS011;56038;46.080;11.116;2023-01-15T23:26:03;11.15;;;9.00;;
68987;SDS011;56038;46.080;11.116;2023-01-15T23:31:07;11.15;;;8.90;;
68987;SDS011;56038;46.080;11.116;2023-01-15T23:36:09;13.45;;;9.50;;
68987;SDS011;56038;46.080;11.116;2023-01-15T23:41:13;10.07;;;9.05;;
68987;SDS011;56038;46.080;11.116;2023-01-15T23:46:16;11.33;;;9.03;;
68987;SDS011;56038;46.080;11.116;2023-01-15T23:51:35;11.88;;;8.82;;
68987;SDS011;56038;46.080;11.116;2023-01-15T23:56:39;11.02;;;8.60;;
